Central Lakes, Minnesota
Current Conditions -  °F | °C
As of 3:31 PM on Friday 28 Nov 2014 (Local Time) from KEVM Reporting Station
Unknown Precip Unknown Precip  
Wind Chill: 19°   Ceiling: 1600
Heat Index: 19°   Visibility: 10mi
Dew Point: 12°   Wind: 3mph
Humidity: 74%   Direction: 110°ESE
Pressure: 29.85"   Gusts: NA
Location:  47.4232°N, 92.5107°W
Report Text: KEVM 282131Z AUTO 11003KT 10SM UP BKN016 OVC045 M07/M11 A2985 RMK AO2
Loading
Personal Weather Stations






























Interactive Weather Map New forecast layout! Learn more

10-Day Weather Forecast

Advertisements
Track Severe Weather on mobile